createdAt,value
2023-03-01T00:01:31.679Z,101488.69
2023-03-01T00:04:00.551Z,101487.56
2023-03-01T00:06:29.021Z,101491.84
2023-03-01T00:08:57.310Z,101498.91
2023-03-01T00:11:28.144Z,101494.69
2023-03-01T00:13:58.579Z,101492.41
2023-03-01T00:16:30.621Z,101488.94
2023-03-01T00:18:58.605Z,101488.69
2023-03-01T00:21:28.065Z,101481.91
2023-03-01T00:23:56.704Z,101475.16
2023-03-01T00:26:26.957Z,101473.50
2023-03-01T00:28:58.868Z,101467.72
2023-03-01T00:31:30.423Z,101464.91
2023-03-01T00:34:02.596Z,101466.00
2023-03-01T00:36:34.587Z,101465.25
2023-03-01T00:39:05.923Z,101461.09
2023-03-01T00:41:35.574Z,101461.25
2023-03-01T00:44:04.363Z,101461.31
2023-03-01T00:46:32.188Z,101458.03
2023-03-01T00:49:03.068Z,101457.81
2023-03-01T00:51:31.251Z,101453.09
2023-03-01T00:54:01.621Z,101453.06
2023-03-01T00:56:31.265Z,101448.50
2023-03-01T00:58:59.689Z,101450.97
2023-03-01T01:01:30.693Z,101446.75
2023-03-01T01:04:01.425Z,101440.38
2023-03-01T01:06:32.775Z,101437.09
2023-03-01T01:09:01.206Z,101431.88
2023-03-01T01:11:30.596Z,101434.72
2023-03-01T01:13:59.582Z,101438.59
2023-03-01T01:16:29.840Z,101425.41
2023-03-01T01:18:57.748Z,101415.13
2023-03-01T01:21:28.031Z,101418.59
2023-03-01T01:23:55.825Z,101409.97
2023-03-01T01:26:30.129Z,101404.91
2023-03-01T01:28:58.869Z,101404.19
2023-03-01T01:31:29.138Z,101401.56
2023-03-01T01:34:01.404Z,101391.91
2023-03-01T01:36:30.265Z,101391.06
2023-03-01T01:38:59.241Z,101379.78
2023-03-01T01:41:29.434Z,101382.25
2023-03-01T01:44:25.986Z,101380.97
2023-03-01T01:47:03.041Z,101373.88
2023-03-01T01:49:49.525Z,101363.38
2023-03-01T01:52:26.575Z,101363.34
2023-03-01T01:55:11.757Z,101359.84
2023-03-01T01:57:41.527Z,101366.94
2023-03-01T02:00:15.693Z,101361.41
2023-03-01T02:02:46.912Z,101358.44
2023-03-01T02:05:23.706Z,101367.78
2023-03-01T02:07:52.492Z,101363.63
2023-03-01T02:10:24.312Z,101355.69
2023-03-01T02:12:53.482Z,101347.22
2023-03-01T02:15:24.995Z,101348.78
2023-03-01T02:17:54.611Z,101343.75
2023-03-01T02:20:48.338Z,101334.66
2023-03-01T02:23:16.175Z,101336.13
2023-03-01T02:25:56.834Z,101332.50
2023-03-01T02:28:35.058Z,101331.69
2023-03-01T02:31:26.871Z,101332.50
2023-03-01T02:33:56.463Z,101334.22
2023-03-01T02:36:29.647Z,101326.81
2023-03-01T02:39:01.007Z,101319.81
2023-03-01T02:41:33.541Z,101322.19
2023-03-01T02:44:01.555Z,101316.25
2023-03-01T02:46:31.010Z,101308.97
2023-03-01T02:49:00.222Z,101305.50
2023-03-01T02:51:49.775Z,101301.31
2023-03-01T02:54:30.440Z,101289.88
2023-03-01T02:56:59.340Z,101296.06
2023-03-01T02:59:32.476Z,101291.94
2023-03-01T03:02:02.204Z,101290.47
2023-03-01T03:04:29.817Z,101280.03
2023-03-01T03:06:58.385Z,101284.81
2023-03-01T03:09:27.147Z,101275.09
2023-03-01T03:11:54.727Z,101286.03
2023-03-01T03:14:24.606Z,101279.28
2023-03-01T03:16:52.267Z,101273.72
2023-03-01T03:19:21.447Z,101269.41
2023-03-01T03:21:49.080Z,101279.53
2023-03-01T03:24:16.782Z,101273.31
2023-03-01T03:26:44.778Z,101273.56
2023-03-01T03:29:12.802Z,101270.53
2023-03-01T03:31:40.321Z,101273.16
2023-03-01T03:34:08.198Z,101275.59
2023-03-01T03:36:35.792Z,101270.38
2023-03-01T03:39:03.520Z,101265.81
2023-03-01T03:41:31.909Z,101275.72
2023-03-01T03:43:59.562Z,101273.41
2023-03-01T03:46:27.608Z,101272.03
2023-03-01T03:48:55.103Z,101276.50
2023-03-01T03:51:23.840Z,101274.31
2023-03-01T03:53:51.782Z,101271.00
2023-03-01T03:56:19.933Z,101265.09
2023-03-01T03:58:47.448Z,101264.69
2023-03-01T04:01:15.046Z,101275.75
2023-03-01T04:03:47.590Z,101263.03
2023-03-01T04:06:15.770Z,101263.78
2023-03-01T04:08:44.176Z,101264.44
2023-03-01T04:11:28.381Z,101271.94
2023-03-01T04:13:58.790Z,101264.81
2023-03-01T04:16:27.632Z,101258.19
2023-03-01T04:18:55.784Z,101264.00
2023-03-01T04:21:24.052Z,101255.78
2023-03-01T04:23:53.653Z,101253.59
2023-03-01T04:26:21.298Z,101254.66
2023-03-01T04:28:51.378Z,101249.06
2023-03-01T04:31:22.246Z,101250.19
2023-03-01T04:33:53.395Z,101250.34
2023-03-01T04:36:24.583Z,101249.06
2023-03-01T04:38:53.133Z,101251.56
2023-03-01T04:41:23.042Z,101253.38
2023-03-01T04:43:51.509Z,101246.13
2023-03-01T04:46:21.697Z,101249.69
2023-03-01T04:48:50.418Z,101253.31
2023-03-01T04:51:19.383Z,101250.44
2023-03-01T04:53:47.411Z,101250.53
2023-03-01T04:56:16.170Z,101253.66
2023-03-01T04:58:45.169Z,101249.50
2023-03-01T05:01:17.685Z,101260.22
2023-03-01T05:03:48.341Z,101255.41
2023-03-01T05:06:17.837Z,101253.44
2023-03-01T05:08:46.059Z,101255.06
2023-03-01T05:11:14.386Z,101252.84
2023-03-01T05:13:42.916Z,101252.09
2023-03-01T05:16:12.659Z,101247.88
2023-03-01T05:18:41.907Z,101242.34
2023-03-01T05:21:12.628Z,101236.91
2023-03-01T05:23:40.736Z,101239.66
2023-03-01T05:26:22.306Z,101235.41
2023-03-01T05:29:00.014Z,101241.41
2023-03-01T05:31:28.620Z,101237.59
2023-03-01T05:33:56.782Z,101234.41
2023-03-01T05:36:24.301Z,101230.97
2023-03-01T05:38:52.914Z,101238.41
2023-03-01T05:41:20.415Z,101252.22
2023-03-01T05:43:48.339Z,101248.50
2023-03-01T05:46:16.503Z,101254.47
2023-03-01T05:48:44.804Z,101236.97
2023-03-01T05:51:13.164Z,101235.28
2023-03-01T05:53:41.545Z,101227.75
2023-03-01T05:56:09.235Z,101231.56
2023-03-01T05:58:36.816Z,101237.03
2023-03-01T06:01:04.501Z,101240.28
2023-03-01T06:03:32.111Z,101247.78
2023-03-01T06:06:00.186Z,101246.53
2023-03-01T06:08:28.664Z,101248.97
2023-03-01T06:10:56.143Z,101247.94
2023-03-01T06:13:24.701Z,101238.75
2023-03-01T06:15:53.093Z,101243.81
2023-03-01T06:18:20.821Z,101249.81
2023-03-01T06:20:57.369Z,101255.13
2023-03-01T06:23:25.867Z,101244.22
2023-03-01T06:25:53.490Z,101235.19
2023-03-01T06:28:21.497Z,101236.88
2023-03-01T06:30:50.805Z,101226.84
2023-03-01T06:33:21.056Z,101224.41
2023-03-01T06:35:49.524Z,101225.97
2023-03-01T06:38:19.964Z,101223.63
2023-03-01T06:40:54.236Z,101224.78
2023-03-01T06:43:22.669Z,101219.50
2023-03-01T06:45:50.702Z,101221.19
2023-03-01T06:48:18.917Z,101215.06
2023-03-01T06:50:46.506Z,101222.88
2023-03-01T06:53:15.143Z,101222.56
2023-03-01T06:55:42.750Z,101232.00
2023-03-01T06:58:11.649Z,101233.41
2023-03-01T07:00:41.873Z,101226.50
2023-03-01T07:03:09.716Z,101233.81
2023-03-01T07:05:37.807Z,101232.09
2023-03-01T07:08:05.940Z,101230.31
2023-03-01T07:10:33.819Z,101228.56
2023-03-01T07:13:01.408Z,101224.41
2023-03-01T07:15:29.942Z,101221.97
2023-03-01T07:17:58.534Z,101222.03
2023-03-01T07:20:26.731Z,101224.16
2023-03-01T07:22:57.398Z,101220.47
2023-03-01T07:25:25.767Z,101215.97
2023-03-01T07:27:54.215Z,101214.81
2023-03-01T07:30:22.428Z,101220.00
2023-03-01T07:32:50.757Z,101217.44
2023-03-01T07:35:18.450Z,101221.31
2023-03-01T07:37:46.037Z,101218.06
2023-03-01T07:40:14.263Z,101215.03
2023-03-01T07:42:42.147Z,101210.78
2023-03-01T07:45:10.115Z,101210.97
2023-03-01T07:47:38.613Z,101210.00
2023-03-01T07:50:06.598Z,101191.34
2023-03-01T07:52:34.087Z,101185.00
2023-03-01T07:55:01.677Z,101181.22
2023-03-01T07:57:29.763Z,101185.66
2023-03-01T07:59:57.808Z,101179.59
2023-03-01T08:02:25.483Z,101175.34
2023-03-01T08:04:54.110Z,101170.72
2023-03-01T08:07:21.657Z,101175.31
2023-03-01T08:09:49.916Z,101166.63
2023-03-01T08:12:18.529Z,101165.50
2023-03-01T08:14:46.455Z,101150.28
2023-03-01T08:17:17.065Z,101143.91
2023-03-01T08:19:44.666Z,101145.84
2023-03-01T08:22:12.576Z,101142.34
2023-03-01T08:24:40.722Z,101142.94
2023-03-01T08:27:09.753Z,101142.50
2023-03-01T08:29:37.677Z,101136.22
2023-03-01T08:32:06.290Z,101140.72
2023-03-01T08:34:36.537Z,101145.19
2023-03-01T08:37:04.196Z,101138.94
2023-03-01T08:39:32.877Z,101139.56
2023-03-01T08:42:00.903Z,101148.09
2023-03-01T08:44:28.425Z,101142.72
2023-03-01T08:46:56.734Z,101139.41
2023-03-01T08:49:25.629Z,101136.16
2023-03-01T08:51:53.205Z,101131.09
2023-03-01T08:54:22.734Z,101125.78
2023-03-01T08:56:51.219Z,101124.19
2023-03-01T08:59:19.788Z,101106.44
2023-03-01T09:01:47.547Z,101108.09
2023-03-01T09:04:17.074Z,101105.25
2023-03-01T09:06:44.826Z,101109.41
2023-03-01T09:09:18.306Z,101108.38
2023-03-01T09:11:47.614Z,101106.22
2023-03-01T09:14:15.817Z,101100.47
2023-03-01T09:16:44.488Z,101096.59
2023-03-01T09:19:12.328Z,101097.59
2023-03-01T09:21:41.229Z,101085.81
2023-03-01T09:24:15.342Z,101086.19
2023-03-01T09:26:43.396Z,101093.66
2023-03-01T09:29:11.439Z,101092.56
2023-03-01T09:31:40.432Z,101091.25
2023-03-01T09:34:08.923Z,101092.22
2023-03-01T09:36:36.816Z,101090.97
2023-03-01T09:39:06.920Z,101080.66
2023-03-01T09:41:48.431Z,101081.69
2023-03-01T09:44:41.383Z,101072.34
2023-03-01T09:47:25.407Z,101069.41
2023-03-01T09:50:15.319Z,101056.84
2023-03-01T09:52:49.826Z,101051.50
2023-03-01T09:55:35.855Z,101047.59
2023-03-01T09:58:30.819Z,101039.53
2023-03-01T10:01:03.875Z,101043.16
2023-03-01T10:04:03.741Z,101037.88
2023-03-01T10:06:35.212Z,101043.81
2023-03-01T10:09:10.176Z,101053.41
2023-03-01T10:11:47.958Z,101050.22
2023-03-01T10:14:37.547Z,101058.47
2023-03-01T10:17:20.874Z,101057.34
2023-03-01T10:19:48.758Z,101055.81
2023-03-01T10:22:30.277Z,101053.09
2023-03-01T10:25:03.261Z,101044.09
2023-03-01T10:27:41.447Z,101046.25
2023-03-01T10:30:21.853Z,101038.75
2023-03-01T10:32:53.850Z,101039.75
2023-03-01T10:35:24.472Z,101029.00
2023-03-01T10:38:07.569Z,101034.47
2023-03-01T10:40:37.064Z,101021.50
2023-03-01T10:43:06.934Z,101018.69
2023-03-01T10:45:38.802Z,101011.25
2023-03-01T10:48:30.068Z,101019.28
2023-03-01T10:51:01.710Z,101018.84
2023-03-01T10:53:39.199Z,101016.66
2023-03-01T10:56:10.486Z,101017.63
2023-03-01T10:58:40.228Z,101019.00
2023-03-01T11:01:31.255Z,101014.25
2023-03-01T11:04:08.775Z,101020.56
2023-03-01T11:06:38.775Z,101015.75
2023-03-01T11:09:22.476Z,101019.63
2023-03-01T11:11:57.994Z,101018.03
2023-03-01T11:14:28.721Z,101018.97
2023-03-01T11:17:03.057Z,101026.13
2023-03-01T11:19:31.364Z,101017.09
2023-03-01T11:22:21.961Z,101014.28
2023-03-01T11:25:08.467Z,101027.94
2023-03-01T11:27:42.347Z,101035.31
2023-03-01T11:30:19.460Z,101030.88
2023-03-01T11:32:50.725Z,101031.56
2023-03-01T11:35:27.058Z,101028.25
2023-03-01T11:38:13.904Z,101034.69
2023-03-01T11:40:48.041Z,101039.66
2023-03-01T11:43:28.770Z,101042.72
2023-03-01T11:46:13.503Z,101043.16
2023-03-01T11:49:20.943Z,101045.28
2023-03-01T11:52:07.001Z,101049.72
2023-03-01T11:54:54.162Z,101053.97
2023-03-01T11:57:50.093Z,101056.09
2023-03-01T12:00:45.668Z,101059.56
2023-03-01T12:03:31.076Z,101047.16
2023-03-01T12:06:29.353Z,101044.75
2023-03-01T12:09:09.427Z,101045.38
2023-03-01T12:11:46.816Z,101038.22
2023-03-01T12:14:33.009Z,101042.75
2023-03-01T12:17:13.423Z,101043.56
2023-03-01T12:20:12.058Z,101046.03
2023-03-01T12:22:45.884Z,101039.25
2023-03-01T12:25:36.170Z,101040.28
2023-03-01T12:28:15.855Z,101048.59
2023-03-01T12:31:06.324Z,101045.31
2023-03-01T12:33:58.534Z,101049.75
2023-03-01T12:36:39.069Z,101044.84
2023-03-01T12:39:29.740Z,101044.53
2023-03-01T12:42:14.236Z,101039.28
2023-03-01T12:44:48.681Z,101034.31
2023-03-01T12:47:27.700Z,101042.72
2023-03-01T12:49:59.434Z,101040.84
2023-03-01T12:52:51.220Z,101033.75
2023-03-01T12:55:31.400Z,101025.72
2023-03-01T12:58:37.122Z,101010.50
2023-03-01T13:01:15.422Z,101007.66
2023-03-01T13:03:46.107Z,101007.63
2023-03-01T13:06:19.768Z,100999.47
2023-03-01T13:08:57.432Z,100998.88
2023-03-01T13:11:25.744Z,100996.63
2023-03-01T13:13:55.568Z,101011.06
2023-03-01T13:16:38.462Z,100997.97
2023-03-01T13:19:17.072Z,100996.59
2023-03-01T13:21:46.352Z,100998.53
2023-03-01T13:24:32.504Z,101000.03
2023-03-01T13:27:09.674Z,100997.69
2023-03-01T13:29:52.977Z,100992.53
2023-03-01T13:32:34.608Z,100987.13
2023-03-01T13:35:17.902Z,100987.13
2023-03-01T13:37:46.939Z,100983.47
2023-03-01T13:40:19.449Z,100982.63
2023-03-01T13:43:04.275Z,100984.31
2023-03-01T13:45:44.096Z,100985.69
2023-03-01T13:48:28.772Z,100983.47
2023-03-01T13:51:02.343Z,100987.91
2023-03-01T13:53:38.288Z,100983.91
2023-03-01T13:56:19.507Z,100989.44
2023-03-01T13:59:05.711Z,100980.75
2023-03-01T14:01:36.782Z,100985.16
2023-03-01T14:04:21.800Z,100997.28
2023-03-01T14:06:49.920Z,100997.53
2023-03-01T14:09:29.399Z,100992.34
2023-03-01T14:12:31.346Z,100999.19
2023-03-01T14:15:26.644Z,101000.94
2023-03-01T14:18:17.540Z,101003.81
2023-03-01T14:20:52.292Z,100999.16
2023-03-01T14:23:23.038Z,101010.66
2023-03-01T14:25:56.731Z,101010.34
2023-03-01T14:28:34.406Z,101007.06
2023-03-01T14:31:03.229Z,100992.31
2023-03-01T14:33:38.249Z,101004.25
2023-03-01T14:36:14.568Z,101003.34
2023-03-01T14:38:43.422Z,100996.16
2023-03-01T14:41:16.819Z,101000.63
2023-03-01T14:43:48.955Z,100998.94
2023-03-01T14:46:22.339Z,101004.19
2023-03-01T14:48:53.266Z,100999.28
2023-03-01T14:51:21.426Z,101007.06
2023-03-01T14:53:51.617Z,100997.81
2023-03-01T14:56:20.464Z,101000.34
2023-03-01T14:58:53.302Z,101006.94
2023-03-01T15:01:22.560Z,100997.44
2023-03-01T15:03:51.883Z,100986.28
2023-03-01T15:06:21.664Z,100986.13
2023-03-01T15:08:53.459Z,100986.31
2023-03-01T15:11:25.910Z,100985.03
2023-03-01T15:13:55.531Z,100989.50
2023-03-01T15:16:35.639Z,100991.69
2023-03-01T15:19:07.138Z,100980.81
2023-03-01T15:21:37.750Z,100987.06
2023-03-01T15:24:13.073Z,100993.72
2023-03-01T15:26:43.368Z,100996.94
2023-03-01T15:29:19.283Z,100981.63
2023-03-01T15:32:05.250Z,100993.88
2023-03-01T15:34:38.428Z,100995.75
2023-03-01T15:37:28.561Z,101007.47
2023-03-01T15:39:58.392Z,101005.84
2023-03-01T15:42:29.209Z,101007.91
2023-03-01T15:45:17.044Z,101005.38
2023-03-01T15:47:54.296Z,101005.44
2023-03-01T15:50:35.087Z,101004.16
2023-03-01T15:53:12.220Z,101001.97
2023-03-01T15:55:40.688Z,100999.09
2023-03-01T15:58:15.590Z,101009.53
2023-03-01T16:00:59.483Z,100998.22
2023-03-01T16:03:29.225Z,101000.91
2023-03-01T16:05:57.842Z,101002.56
2023-03-01T16:08:25.414Z,101006.00
2023-03-01T16:10:55.533Z,101004.63
2023-03-01T16:13:23.783Z,101005.94
2023-03-01T16:15:52.493Z,101001.63
2023-03-01T16:18:20.562Z,101012.59
2023-03-01T16:20:49.358Z,101015.22
2023-03-01T16:23:17.370Z,101020.44
2023-03-01T16:25:45.462Z,101023.88
2023-03-01T16:28:15.172Z,101027.09
2023-03-01T16:30:48.742Z,101037.16
2023-03-01T16:33:29.595Z,101034.88
2023-03-01T16:36:03.380Z,101031.78
2023-03-01T16:38:33.650Z,101034.88
2023-03-01T16:41:02.014Z,101041.41
2023-03-01T16:43:31.243Z,101048.50
2023-03-01T16:45:59.855Z,101041.66
2023-03-01T16:48:27.655Z,101044.59
2023-03-01T16:51:01.132Z,101050.88
2023-03-01T16:53:29.799Z,101049.75
2023-03-01T16:55:59.048Z,101050.38
2023-03-01T16:58:27.430Z,101056.28
2023-03-01T17:00:56.498Z,101060.72
2023-03-01T17:03:27.284Z,101061.34
2023-03-01T17:05:55.584Z,101059.53
2023-03-01T17:08:24.628Z,101064.47
2023-03-01T17:10:52.240Z,101068.25
2023-03-01T17:13:20.445Z,101080.97
2023-03-01T17:15:49.489Z,101082.66
2023-03-01T17:18:17.725Z,101089.03
2023-03-01T17:20:45.296Z,101084.25
2023-03-01T17:23:13.962Z,101097.91
2023-03-01T17:25:45.687Z,101087.06
2023-03-01T17:28:14.722Z,101094.25
2023-03-01T17:30:45.574Z,101097.66
2023-03-01T17:33:15.042Z,101100.81
2023-03-01T17:35:46.213Z,101102.72
2023-03-01T17:38:18.189Z,101107.06
2023-03-01T17:40:47.040Z,101112.66
2023-03-01T17:43:17.546Z,101102.78
2023-03-01T17:45:48.816Z,101108.69
2023-03-01T17:48:17.388Z,101111.00
2023-03-01T17:50:45.054Z,101113.06
2023-03-01T17:53:12.839Z,101120.22
2023-03-01T17:55:43.697Z,101116.38
2023-03-01T17:58:13.878Z,101118.22
2023-03-01T18:00:42.662Z,101119.84
2023-03-01T18:03:11.286Z,101125.44
2023-03-01T18:05:39.839Z,101123.94
2023-03-01T18:08:08.269Z,101126.34
2023-03-01T18:10:37.552Z,101125.13
2023-03-01T18:13:06.645Z,101124.41
2023-03-01T18:15:34.310Z,101123.97
2023-03-01T18:18:02.553Z,101120.53
2023-03-01T18:20:32.822Z,101130.50
2023-03-01T18:23:00.958Z,101125.44
2023-03-01T18:25:29.387Z,101123.44
2023-03-01T18:27:57.006Z,101134.91
2023-03-01T18:30:25.139Z,101136.28
2023-03-01T18:32:56.359Z,101135.50
2023-03-01T18:35:24.918Z,101141.09
2023-03-01T18:37:52.708Z,101138.97
2023-03-01T18:40:20.908Z,101144.44
2023-03-01T18:42:48.446Z,101148.13
2023-03-01T18:45:18.020Z,101146.31
2023-03-01T18:47:45.708Z,101139.81
2023-03-01T18:50:13.256Z,101148.50
2023-03-01T18:52:41.786Z,101147.97
2023-03-01T18:55:09.930Z,101149.72
2023-03-01T18:57:38.303Z,101151.72
2023-03-01T19:00:07.113Z,101154.97
2023-03-01T19:02:35.192Z,101154.84
2023-03-01T19:05:03.935Z,101150.72
2023-03-01T19:07:31.976Z,101146.00
2023-03-01T19:10:00.591Z,101156.22
2023-03-01T19:12:28.587Z,101159.03
2023-03-01T19:14:56.448Z,101168.94
2023-03-01T19:17:30.519Z,101173.63
2023-03-01T19:19:59.091Z,101171.16
2023-03-01T19:22:28.464Z,101179.69
2023-03-01T19:24:56.052Z,101177.31
2023-03-01T19:27:23.684Z,101180.09
2023-03-01T19:29:51.419Z,101178.16
2023-03-01T19:32:19.490Z,101177.03
2023-03-01T19:34:47.549Z,101180.72
2023-03-01T19:37:15.622Z,101181.47
2023-03-01T19:39:44.050Z,101180.28
2023-03-01T19:42:12.260Z,101185.94
2023-03-01T19:44:41.523Z,101187.63
2023-03-01T19:47:09.959Z,101179.44
2023-03-01T19:49:38.251Z,101187.09
2023-03-01T19:52:06.464Z,101195.72
2023-03-01T19:54:35.089Z,101197.69
2023-03-01T19:57:03.196Z,101200.22
2023-03-01T19:59:30.844Z,101199.22
2023-03-01T20:01:58.859Z,101200.78
2023-03-01T20:04:27.204Z,101198.75
2023-03-01T20:06:55.475Z,101199.53
2023-03-01T20:09:23.453Z,101201.34
2023-03-01T20:11:51.698Z,101203.53
2023-03-01T20:14:23.577Z,101210.53
2023-03-01T20:16:52.483Z,101210.94
2023-03-01T20:19:20.145Z,101215.19
2023-03-01T20:21:47.895Z,101213.84
2023-03-01T20:24:15.888Z,101219.50
2023-03-01T20:26:43.903Z,101218.66
2023-03-01T20:29:12.773Z,101225.63
2023-03-01T20:31:42.656Z,101229.09
2023-03-01T20:34:11.044Z,101224.59
2023-03-01T20:36:41.069Z,101231.75
2023-03-01T20:39:09.812Z,101233.88
2023-03-01T20:41:40.026Z,101240.00
2023-03-01T20:44:07.874Z,101237.34
2023-03-01T20:46:37.349Z,101231.47
2023-03-01T20:49:06.414Z,101237.91
2023-03-01T20:51:33.959Z,101237.13
2023-03-01T20:54:02.208Z,101243.34
2023-03-01T20:56:31.152Z,101247.56
2023-03-01T20:59:08.175Z,101235.56
2023-03-01T21:01:38.850Z,101231.94
2023-03-01T21:04:07.620Z,101235.34
2023-03-01T21:06:37.928Z,101232.25
2023-03-01T21:09:06.111Z,101233.81
2023-03-01T21:11:34.228Z,101238.13
2023-03-01T21:14:02.386Z,101233.34
2023-03-01T21:16:30.875Z,101233.44
2023-03-01T21:19:04.571Z,101227.16
2023-03-01T21:21:33.230Z,101231.28
2023-03-01T21:24:00.957Z,101227.38
2023-03-01T21:26:28.435Z,101237.97
2023-03-01T21:29:03.742Z,101232.19
2023-03-01T21:31:35.383Z,101237.47
2023-03-01T21:34:06.189Z,101236.44
2023-03-01T21:36:36.077Z,101245.59
2023-03-01T21:39:06.410Z,101246.38
2023-03-01T21:41:36.468Z,101234.50
2023-03-01T21:44:06.757Z,101238.38
2023-03-01T21:46:38.485Z,101239.75
2023-03-01T21:49:07.640Z,101234.63
2023-03-01T21:51:36.676Z,101234.53
2023-03-01T21:54:05.762Z,101239.53
2023-03-01T21:56:35.478Z,101235.75
2023-03-01T21:59:04.090Z,101239.53
2023-03-01T22:01:32.389Z,101247.59
2023-03-01T22:04:03.225Z,101236.91
2023-03-01T22:06:40.713Z,101238.84
2023-03-01T22:09:15.879Z,101229.97
2023-03-01T22:11:47.588Z,101238.94
2023-03-01T22:14:18.006Z,101235.50
2023-03-01T22:16:48.209Z,101230.91
2023-03-01T22:19:17.861Z,101231.63
2023-03-01T22:21:49.785Z,101228.50
2023-03-01T22:24:19.468Z,101226.28
2023-03-01T22:26:49.316Z,101227.34
2023-03-01T22:29:21.378Z,101221.47
2023-03-01T22:31:50.569Z,101212.94
2023-03-01T22:34:19.384Z,101214.78
2023-03-01T22:36:48.257Z,101211.41
2023-03-01T22:39:20.221Z,101212.16
2023-03-01T22:41:49.704Z,101213.22
2023-03-01T22:44:20.288Z,101212.88
2023-03-01T22:46:48.907Z,101217.72
2023-03-01T22:49:17.683Z,101216.63
2023-03-01T22:51:47.589Z,101212.63
2023-03-01T22:54:16.620Z,101212.97
2023-03-01T22:56:44.349Z,101218.72
2023-03-01T22:59:15.667Z,101212.72
2023-03-01T23:01:48.171Z,101206.34
2023-03-01T23:04:17.813Z,101203.28
2023-03-01T23:06:53.820Z,101206.34
2023-03-01T23:09:30.102Z,101197.88
2023-03-01T23:12:00.384Z,101202.97
2023-03-01T23:14:32.402Z,101212.72
2023-03-01T23:17:01.687Z,101211.19
2023-03-01T23:19:30.928Z,101206.44
2023-03-01T23:21:58.925Z,101203.44
2023-03-01T23:24:31.462Z,101203.03
2023-03-01T23:27:01.400Z,101201.44
2023-03-01T23:29:29.527Z,101195.66
2023-03-01T23:32:00.617Z,101197.66
2023-03-01T23:34:28.851Z,101196.28
2023-03-01T23:36:58.669Z,101195.38
2023-03-01T23:39:29.929Z,101189.50
2023-03-01T23:41:58.656Z,101190.53
2023-03-01T23:44:26.502Z,101183.75
2023-03-01T23:46:54.035Z,101190.97
2023-03-01T23:49:23.947Z,101190.97
2023-03-01T23:51:52.682Z,101186.50
2023-03-01T23:54:23.806Z,101191.44
2023-03-01T23:56:52.115Z,101198.03
2023-03-01T23:59:23.026Z,101194.72
